Time;durP1;ratioP1;P1;durP2;ratioP2;P2;SDS_P1;SDS_P2;PMS_P1;PMS_P2;Temp;Humidity;BMP_temperature;BMP_pressure;BME280_temperature;BME280_humidity;BME280_pressure;Samples;Min_cycle;Max_cycle;Signal;HPM_P1;HPM_P2
2022/10/24 00:01:21;;;;;;;1.50;0.90;;;;;;;17.02;100.00;100028.31;4990189;28;20038;-66
2022/10/24 00:03:50;;;;;;;2.47;1.40;;;;;;;16.98;100.00;100035.75;4990000;28;20069;-66
2022/10/24 00:06:20;;;;;;;1.90;1.00;;;;;;;17.05;100.00;100022.03;4989872;28;20062;-67
2022/10/24 00:08:46;;;;;;;2.25;1.30;;;;;;;17.19;100.00;100031.16;4987721;28;20034;-67
2022/10/24 00:11:23;;;;;;;2.00;1.20;;;;;;;17.13;100.00;100019.97;4983637;28;20045;-67
2022/10/24 00:13:50;;;;;;;2.90;1.08;;;;;;;17.15;100.00;100031.19;4990015;28;20034;-67
2022/10/24 00:16:15;;;;;;;1.63;1.08;;;;;;;17.05;100.00;100032.16;4980652;28;20097;-67
2022/10/24 00:18:41;;;;;;;1.83;1.25;;;;;;;16.83;100.00;100028.22;4983247;28;20026;-67
2022/10/24 00:21:07;;;;;;;2.22;1.10;;;;;;;16.90;100.00;100017.22;4990422;28;20466;-67
2022/10/24 00:23:32;;;;;;;3.22;1.55;;;;;;;16.88;100.00;100014.16;4987540;28;20482;-66
2022/10/24 00:26:02;;;;;;;3.45;1.33;;;;;;;16.81;100.00;100011.56;4984990;28;20030;-66
2022/10/24 00:28:33;;;;;;;1.42;1.00;;;;;;;16.79;100.00;100020.13;4989335;28;20117;-67
2022/10/24 00:30:59;;;;;;;2.45;1.05;;;;;;;16.92;100.00;100026.53;4993741;28;20107;-66
2022/10/24 00:33:25;;;;;;;1.52;1.23;;;;;;;16.73;100.00;100021.78;4992247;28;20030;-66
2022/10/24 00:35:51;;;;;;;3.70;1.30;;;;;;;16.80;100.00;100023.63;4993516;28;20069;-66
2022/10/24 00:38:16;;;;;;;1.23;0.80;;;;;;;16.73;100.00;100024.50;4993456;28;20069;-67
2022/10/24 00:40:42;;;;;;;2.67;1.23;;;;;;;16.79;100.00;100017.41;4993549;28;20034;-66
2022/10/24 00:43:20;;;;;;;2.45;1.38;;;;;;;17.02;100.00;100019.38;4987621;28;20038;-66
2022/10/24 00:46:00;;;;;;;1.23;0.70;;;;;;;16.95;100.00;100009.38;4988772;28;20506;-67
2022/10/24 00:48:36;;;;;;;3.45;1.13;;;;;;;16.70;100.00;100011.72;4977364;28;20038;-66
2022/10/24 00:51:07;;;;;;;1.23;0.95;;;;;;;16.86;100.00;99997.50;5008998;28;20109;-66
2022/10/24 00:53:37;;;;;;;1.63;0.82;;;;;;;16.84;100.00;99997.13;4990508;28;20042;-67
2022/10/24 00:56:05;;;;;;;1.75;1.15;;;;;;;16.91;100.00;99999.75;4999798;28;20540;-66
2022/10/24 00:58:34;;;;;;;2.30;1.38;;;;;;;16.90;100.00;99993.53;4991993;28;20471;-67
2022/10/24 01:01:00;;;;;;;2.00;1.00;;;;;;;16.88;100.00;99993.16;4990329;28;20453;-66
2022/10/24 01:03:26;;;;;;;1.40;0.90;;;;;;;16.90;100.00;99990.03;4995512;28;20038;-67
2022/10/24 01:06:26;;;;;;;1.08;0.95;;;;;;;16.96;100.00;99996.53;4992737;28;20072;-66
2022/10/24 01:09:06;;;;;;;3.97;1.40;;;;;;;16.95;100.00;100003.94;4992707;28;20546;-67
2022/10/24 01:11:31;;;;;;;1.20;0.95;;;;;;;16.93;100.00;99989.22;4980443;28;20036;-67
2022/10/24 01:14:26;;;;;;;1.33;1.00;;;;;;;16.67;100.00;99995.44;4992721;28;20042;-67
2022/10/24 01:17:14;;;;;;;3.13;1.00;;;;;;;16.87;100.00;99982.69;4988050;28;20045;-67
2022/10/24 01:19:48;;;;;;;1.38;1.15;;;;;;;16.86;100.00;99984.66;5002461;28;20074;-66
2022/10/24 01:22:21;;;;;;;2.78;1.13;;;;;;;16.75;100.00;99983.28;4992427;28;20038;-66
2022/10/24 01:24:56;;;;;;;4.32;1.08;;;;;;;16.68;100.00;99992.34;4992593;28;20474;-67
2022/10/24 01:27:27;;;;;;;1.88;1.10;;;;;;;16.59;100.00;99985.88;4990156;28;20050;-66
2022/10/24 01:30:03;;;;;;;2.03;1.10;;;;;;;16.62;100.00;99969.50;4992312;28;20030;-67
2022/10/24 01:33:01;;;;;;;2.58;0.80;;;;;;;16.66;100.00;99964.78;4992785;28;20445;-66
2022/10/24 01:35:36;;;;;;;1.70;1.08;;;;;;;16.61;100.00;99967.94;5007880;28;20034;-66
2022/10/24 01:38:15;;;;;;;1.40;1.02;;;;;;;16.59;100.00;99964.88;4984924;28;20037;-67
2022/10/24 01:40:57;;;;;;;2.08;1.13;;;;;;;16.49;100.00;99973.22;4987285;28;20164;-67
2022/10/24 01:43:33;;;;;;;2.05;1.02;;;;;;;16.44;100.00;99970.91;4993110;28;20026;-66
2022/10/24 01:46:03;;;;;;;1.73;1.08;;;;;;;16.49;100.00;99960.34;4991207;28;20035;-66
2022/10/24 01:48:33;;;;;;;1.45;1.00;;;;;;;16.62;100.00;99968.72;4992381;28;20034;-67
2022/10/24 01:51:02;;;;;;;3.07;1.60;;;;;;;16.50;100.00;99978.22;4992578;28;20042;-66
2022/10/24 01:53:28;;;;;;;0.93;0.85;;;;;;;16.56;100.00;99964.94;5004344;28;20042;-66
2022/10/24 01:55:55;;;;;;;3.03;1.10;;;;;;;16.62;100.00;99968.72;4990043;28;20030;-67
2022/10/24 01:58:21;;;;;;;2.63;1.23;;;;;;;16.62;100.00;99966.78;4989796;28;20643;-67
2022/10/24 02:00:48;;;;;;;3.72;1.00;;;;;;;16.53;100.00;99960.34;4991192;28;20030;-67
2022/10/24 02:03:19;;;;;;;1.50;1.00;;;;;;;16.59;100.00;99973.03;4999951;28;20030;-68
2022/10/24 02:05:48;;;;;;;;;;;;;;;16.56;100.00;99962.22;4991726;28;20133;-67
2022/10/24 02:08:23;;;;;;;1.00;1.00;;;;;;;16.42;100.00;99965.88;4987221;28;20000;-67
2022/10/24 02:10:56;;;;;;;1.25;0.98;;;;;;;16.60;100.00;99963.72;4990057;28;20038;-67
2022/10/24 02:13:27;;;;;;;3.17;0.95;;;;;;;16.59;100.00;99962.16;4984454;28;20050;-66
2022/10/24 02:15:57;;;;;;;1.02;0.77;;;;;;;16.53;100.00;99954.91;4988081;28;20045;-67
2022/10/24 02:18:23;;;;;;;1.48;1.00;;;;;;;16.55;100.00;99958.72;4989380;28;20061;-66
2022/10/24 02:21:05;;;;;;;2.67;1.50;;;;;;;16.45;100.00;99956.16;4975007;28;20062;-66
2022/10/24 02:24:10;;;;;;;2.05;0.90;;;;;;;16.53;100.00;99955.66;4989967;28;20100;-67
2022/10/24 02:26:47;;;;;;;2.17;1.35;;;;;;;16.70;100.00;99937.53;4979697;28;20042;-67
2022/10/24 02:29:16;;;;;;;1.05;0.80;;;;;;;16.42;100.00;99938.69;4988554;28;20030;-67
2022/10/24 02:31:50;;;;;;;1.52;1.05;;;;;;;16.48;100.00;99942.53;4987073;28;20033;-66
2022/10/24 02:34:18;;;;;;;3.28;1.15;;;;;;;16.29;100.00;99935.03;4991533;28;20022;-66
2022/10/24 02:36:47;;;;;;;0.88;0.88;;;;;;;16.50;100.00;99936.66;4983768;28;20038;-67
2022/10/24 02:39:14;;;;;;;1.38;1.05;;;;;;;16.54;100.00;99927.28;4983359;28;20046;-66
2022/10/24 02:41:42;;;;;;;2.20;1.00;;;;;;;16.49;100.00;99921.56;4996010;28;20056;-66
2022/10/24 02:44:09;;;;;;;2.58;1.17;;;;;;;16.52;100.00;99924.22;4991326;28;20105;-66
2022/10/24 02:46:36;;;;;;;3.90;1.33;;;;;;;16.59;100.00;99926.81;4983366;28;20078;-68
2022/10/24 02:49:02;;;;;;;0.90;0.90;;;;;;;16.57;100.00;99912.88;4980910;28;20081;-66
2022/10/24 02:51:35;;;;;;;1.75;0.93;;;;;;;16.64;100.00;99907.31;4983347;28;20111;-68
2022/10/24 02:54:02;;;;;;;2.30;1.10;;;;;;;16.62;100.00;99911.63;4980725;28;20077;-67
2022/10/24 02:56:28;;;;;;;4.25;1.10;;;;;;;16.46;100.00;99916.91;4984824;28;20035;-66
2022/10/24 02:58:53;;;;;;;1.80;0.98;;;;;;;16.51;100.00;99913.75;4981856;28;20038;-67
2022/10/24 03:01:19;;;;;;;1.27;1.00;;;;;;;16.56;100.00;99914.06;4983643;28;20399;-66
2022/10/24 03:03:44;;;;;;;1.92;0.90;;;;;;;16.58;100.00;99919.84;4981186;28;20030;-66
2022/10/24 03:06:10;;;;;;;2.35;1.02;;;;;;;16.47;100.00;99919.22;4979935;28;20041;-67
2022/10/24 03:08:35;;;;;;;3.33;1.20;;;;;;;16.34;100.00;99915.53;4962004;28;20042;-66
2022/10/24 03:11:01;;;;;;;3.35;1.20;;;;;;;16.27;100.00;99902.84;4983243;28;20093;-66
2022/10/24 03:13:27;;;;;;;0.88;0.75;;;;;;;16.31;100.00;99902.00;4983931;28;20041;-66
2022/10/24 03:15:52;;;;;;;2.22;1.10;;;;;;;16.31;100.00;99907.44;4981416;28;20049;-67
2022/10/24 03:18:18;;;;;;;3.08;0.95;;;;;;;16.19;100.00;99908.78;4983391;28;20084;-65
2022/10/24 03:20:43;;;;;;;1.35;1.08;;;;;;;16.26;100.00;99904.00;4987412;28;20109;-66
2022/10/24 03:23:09;;;;;;;1.55;0.90;;;;;;;16.12;100.00;99898.75;4986040;28;20034;-66
2022/10/24 03:25:34;;;;;;;2.10;0.93;;;;;;;16.23;100.00;99895.91;4983245;28;20399;-66
2022/10/24 03:28:00;;;;;;;2.55;1.08;;;;;;;16.09;100.00;99896.09;4982862;28;20541;-67
2022/10/24 03:30:25;;;;;;;1.35;1.00;;;;;;;16.26;100.00;99893.13;4986059;28;20046;-67
2022/10/24 03:32:51;;;;;;;1.75;0.98;;;;;;;16.27;100.00;99883.81;4977407;28;20038;-67
2022/10/24 03:35:16;;;;;;;2.13;1.38;;;;;;;16.24;100.00;99879.19;4989891;28;20092;-66
2022/10/24 03:37:42;;;;;;;3.20;1.45;;;;;;;16.28;100.00;99874.47;4991319;28;20034;-67
2022/10/24 03:40:09;;;;;;;3.70;1.17;;;;;;;16.36;100.00;99890.66;4991169;28;20176;-68
2022/10/24 03:42:34;;;;;;;1.33;1.05;;;;;;;16.32;100.00;99881.81;4991477;28;20045;-66
2022/10/24 03:44:59;;;;;;;1.65;1.05;;;;;;;16.35;100.00;99886.41;4990828;28;20491;-66
2022/10/24 03:47:25;;;;;;;1.95;1.20;;;;;;;16.39;100.00;99892.56;4991037;28;20402;-66
2022/10/24 03:49:50;;;;;;;6.82;1.08;;;;;;;16.47;100.00;99896.72;4990704;28;20045;-66
2022/10/24 03:52:16;;;;;;;1.85;1.17;;;;;;;16.40;100.00;99903.00;4986989;28;20402;-67
2022/10/24 03:54:41;;;;;;;1.08;0.95;;;;;;;16.35;100.00;99892.63;4984023;28;20038;-67
2022/10/24 03:57:08;;;;;;;5.13;1.00;;;;;;;16.35;100.00;99886.41;4972250;28;20050;-66
2022/10/24 03:59:35;;;;;;;4.55;1.40;;;;;;;16.22;100.00;99886.97;4981544;28;20030;-67
2022/10/24 04:02:01;;;;;;;2.00;1.15;;;;;;;16.16;100.00;99877.75;4991138;28;20038;-66
2022/10/24 04:04:26;;;;;;;2.03;1.00;;;;;;;16.21;100.00;99874.59;4993535;28;20038;-67
2022/10/24 04:06:52;;;;;;;1.58;1.10;;;;;;;16.10;100.00;99882.09;4992754;28;20278;-66
2022/10/24 04:09:18;;;;;;;1.35;0.95;;;;;;;16.13;100.00;99873.16;4987070;28;20092;-67
2022/10/24 04:11:43;;;;;;;3.08;1.50;;;;;;;16.15;100.00;99859.91;4993504;28;20038;-67
2022/10/24 04:14:08;;;;;;;1.80;1.33;;;;;;;15.92;100.00;99862.59;4994635;28;20034;-66
2022/10/24 04:16:34;;;;;;;2.22;0.93;;;;;;;15.82;100.00;99862.72;4991456;28;20533;-66
2022/10/24 04:19:00;;;;;;;2.45;1.27;;;;;;;15.89;100.00;99866.13;5000342;23;20039;-71
2022/10/24 04:21:26;;;;;;;2.05;0.90;;;;;;;15.93;100.00;99866.84;4975239;28;20034;-72
2022/10/24 04:23:51;;;;;;;2.38;0.98;;;;;;;16.13;100.00;99865.00;4985072;28;20512;-68
2022/10/24 04:26:17;;;;;;;1.02;0.90;;;;;;;16.16;100.00;99849.84;4988757;28;20038;-68
2022/10/24 04:28:43;;;;;;;5.60;1.33;;;;;;;16.08;100.00;99854.59;4975194;28;20124;-69
2022/10/24 04:31:08;;;;;;;2.38;1.25;;;;;;;16.11;100.00;99856.50;4976975;28;20418;-69
2022/10/24 04:33:35;;;;;;;3.33;1.20;;;;;;;16.27;100.00;99862.06;4993141;28;20026;-70
2022/10/24 04:36:01;;;;;;;3.25;1.60;;;;;;;16.25;100.00;99855.50;4991295;28;20109;-72
2022/10/24 04:38:26;;;;;;;2.03;1.00;;;;;;;16.15;100.00;99854.50;4993470;28;20558;-70
2022/10/24 04:40:53;;;;;;;1.77;1.08;;;;;;;15.96;100.00;99874.19;4989928;28;20172;-69
2022/10/24 04:43:20;;;;;;;2.30;1.33;;;;;;;15.91;100.00;99860.28;4994856;28;20084;-70
2022/10/24 04:45:45;;;;;;;1.65;1.25;;;;;;;15.80;100.00;99865.88;4992767;28;20541;-71
2022/10/24 04:48:11;;;;;;;1.77;0.95;;;;;;;15.79;100.00;99855.41;4991610;28;20074;-69
2022/10/24 04:50:38;;;;;;;4.70;1.30;;;;;;;15.89;100.00;99868.09;4985713;28;20038;-69
2022/10/24 04:53:04;;;;;;;4.28;1.10;;;;;;;16.05;100.00;99863.56;4995268;28;20446;-71
2022/10/24 04:55:29;;;;;;;3.58;1.30;;;;;;;16.02;100.00;99866.34;4986377;28;20077;-71
2022/10/24 04:57:55;;;;;;;2.60;1.05;;;;;;;15.98;100.00;99858.25;4994109;28;20060;-69
2022/10/24 05:00:20;;;;;;;4.18;1.30;;;;;;;15.78;100.00;99868.22;4990704;28;20034;-71
2022/10/24 05:02:45;;;;;;;2.83;1.42;;;;;;;15.95;100.00;99869.16;4988479;28;20033;-71
2022/10/24 05:05:11;;;;;;;3.10;1.20;;;;;;;15.91;100.00;99871.91;4990260;28;20065;-69
2022/10/24 05:07:36;;;;;;;2.10;1.30;;;;;;;15.92;100.00;99865.31;4987765;28;20049;-71
2022/10/24 05:10:05;;;;;;;2.88;1.10;;;;;;;15.95;100.00;99877.31;4997294;28;20384;-71
2022/10/24 05:12:31;;;;;;;3.55;1.70;;;;;;;15.78;100.00;99868.22;4986500;28;20066;-71
2022/10/24 05:14:56;;;;;;;1.75;1.30;;;;;;;15.80;100.00;99867.81;4992379;28;20077;-71
2022/10/24 05:17:22;;;;;;;3.30;1.50;;;;;;;15.62;100.00;99870.75;4981911;28;20445;-70
2022/10/24 05:19:47;;;;;;;5.65;1.70;;;;;;;15.73;100.00;99863.25;4969743;28;20049;-71
2022/10/24 05:22:13;;;;;;;1.58;1.08;;;;;;;15.81;100.00;99861.22;4986580;28;20042;-70
2022/10/24 05:24:38;;;;;;;6.93;1.75;;;;;;;15.79;100.00;99864.34;4982695;28;20035;-70
2022/10/24 05:27:04;;;;;;;4.63;1.30;;;;;;;15.90;100.00;99866.91;4965289;28;20034;-71
2022/10/24 05:29:29;;;;;;;3.80;1.40;;;;;;;15.95;100.00;99867.19;4986232;28;20030;-71
2022/10/24 05:31:54;;;;;;;3.17;1.55;;;;;;;16.00;100.00;99864.03;4986643;28;20039;-71
2022/10/24 05:34:20;;;;;;;2.83;1.33;;;;;;;16.04;100.00;99867.47;4986109;28;20066;-71
2022/10/24 05:36:46;;;;;;;2.92;1.40;;;;;;;16.04;100.00;99859.31;4980275;28;20053;-70
2022/10/24 05:39:11;;;;;;;2.60;1.30;;;;;;;16.00;100.00;99850.47;4983719;28;20026;-70
2022/10/24 05:41:39;;;;;;;1.70;1.10;;;;;;;16.01;100.00;99851.97;4993732;28;20053;-70
2022/10/24 05:44:05;;;;;;;2.47;1.10;;;;;;;15.89;100.00;99852.53;4988100;28;20042;-70
2022/10/24 05:46:30;;;;;;;3.00;1.35;;;;;;;16.04;100.00;99855.84;4976740;28;20050;-70
2022/10/24 05:48:56;;;;;;;2.10;1.23;;;;;;;16.08;100.00;99864.69;4978236;28;20031;-70
2022/10/24 05:51:21;;;;;;;2.30;1.30;;;;;;;15.93;100.00;99871.53;4993084;28;20484;-70
2022/10/24 05:53:47;;;;;;;4.20;1.50;;;;;;;15.86;100.00;99872.38;4994564;28;20035;-70
2022/10/24 05:56:12;;;;;;;3.25;1.30;;;;;;;15.85;100.00;99873.53;4991825;28;20129;-71
2022/10/24 05:58:38;;;;;;;4.13;1.10;;;;;;;16.04;100.00;99863.97;4983000;28;20149;-72
2022/10/24 06:01:03;;;;;;;4.25;1.20;;;;;;;15.81;100.00;99862.00;4992556;28;20042;-71
2022/10/24 06:03:29;;;;;;;3.45;1.38;;;;;;;15.84;100.00;99871.25;4992798;28;20045;-71
2022/10/24 06:05:54;;;;;;;4.32;1.50;;;;;;;15.88;100.00;99866.53;4987246;28;20066;-73
2022/10/24 06:08:20;;;;;;;4.50;1.40;;;;;;;15.83;100.00;99867.00;4981213;28;20038;-71
2022/10/24 06:10:50;;;;;;;2.83;1.08;;;;;;;15.86;100.00;99861.50;4991159;28;20042;-71
2022/10/24 06:13:16;;;;;;;2.45;1.20;;;;;;;15.78;100.00;99851.16;4991259;28;20042;-71
2022/10/24 06:19:28;;;;;;;2.28;1.30;;;;;;;16.03;100.00;99857.00;4973257;28;20038;-71
2022/10/24 06:21:54;;;;;;;4.10;1.02;;;;;;;16.04;100.00;99864.75;4956187;28;20254;-72
2022/10/24 06:24:22;;;;;;;3.22;1.40;;;;;;;16.04;100.00;99864.75;4973793;28;20487;-71
2022/10/24 06:26:47;;;;;;;6.25;1.92;;;;;;;16.04;100.00;99862.03;4978159;28;20042;-71
2022/10/24 06:29:13;;;;;;;1.95;1.40;;;;;;;16.08;100.00;99865.47;4973458;28;20070;-71
2022/10/24 06:31:38;;;;;;;1.85;1.20;;;;;;;16.03;100.00;99873.28;4991172;28;20109;-71
2022/10/24 06:34:03;;;;;;;2.58;1.20;;;;;;;15.94;100.00;99859.47;4991570;28;20034;-71
2022/10/24 06:36:29;;;;;;;2.25;1.27;;;;;;;16.02;100.00;99850.03;4992537;28;20042;-71
2022/10/24 06:38:56;;;;;;;3.15;1.38;;;;;;;16.02;100.00;99850.03;4984297;28;20034;-71
2022/10/24 06:41:22;;;;;;;1.77;1.40;;;;;;;16.09;100.00;99860.78;4991291;28;20041;-71
2022/10/24 06:43:48;;;;;;;2.92;1.33;;;;;;;15.99;100.00;99850.84;4992675;28;20405;-71
2022/10/24 06:46:15;;;;;;;6.53;1.20;;;;;;;16.17;100.00;99857.56;4981642;28;20049;-71
2022/10/24 06:48:41;;;;;;;1.20;1.10;;;;;;;16.30;100.00;99859.72;4990666;28;20169;-71
2022/10/24 06:51:07;;;;;;;4.78;1.48;;;;;;;16.24;100.00;99859.38;4990814;28;20180;-71
2022/10/24 06:53:32;;;;;;;1.98;1.20;;;;;;;16.14;100.00;99861.09;4984451;28;20043;-71
2022/10/24 06:55:59;;;;;;;1.70;1.35;;;;;;;16.03;100.00;99863.19;4987546;28;20042;-71
2022/10/24 06:58:24;;;;;;;1.55;0.98;;;;;;;16.15;100.00;99870.78;4985584;28;20062;-71
2022/10/24 07:00:50;;;;;;;5.60;1.08;;;;;;;16.24;100.00;99871.03;4987736;28;20126;-71
2022/10/24 07:03:15;;;;;;;1.85;1.10;;;;;;;16.23;100.00;99874.94;4991939;28;20041;-71
2022/10/24 07:05:41;;;;;;;7.03;1.75;;;;;;;16.25;100.00;99886.16;4990109;28;20069;-71
2022/10/24 07:08:06;;;;;;;1.73;1.20;;;;;;;16.30;100.00;99873.31;4978074;28;20058;-72
2022/10/24 07:10:31;;;;;;;6.25;1.85;;;;;;;16.38;100.00;99882.84;4972204;28;20065;-71
2022/10/24 07:12:58;;;;;;;2.28;1.10;;;;;;;16.28;100.00;99885.34;4970999;28;20042;-72
2022/10/24 07:15:23;;;;;;;3.22;1.63;;;;;;;16.38;100.00;99882.84;4979759;28;20038;-72
2022/10/24 07:17:48;;;;;;;3.70;1.42;;;;;;;16.27;100.00;99894.69;4989349;28;20032;-71
2022/10/24 07:20:14;;;;;;;2.80;1.55;;;;;;;16.30;100.00;99900.47;4991388;28;20049;-72
2022/10/24 07:22:41;;;;;;;2.70;1.35;;;;;;;16.32;100.00;99903.53;4986886;28;20041;-71
2022/10/24 07:25:07;;;;;;;3.38;1.35;;;;;;;16.43;100.00;99902.19;4986075;28;20085;-71
2022/10/24 07:27:33;;;;;;;6.03;1.33;;;;;;;16.46;100.00;99904.09;4972284;28;20447;-72
2022/10/24 07:29:58;;;;;;;2.72;1.65;;;;;;;16.50;100.00;99902.09;4972059;28;20070;-71
2022/10/24 07:32:24;;;;;;;1.90;1.10;;;;;;;16.41;100.00;99910.00;4972295;28;20061;-71
2022/10/24 07:34:49;;;;;;;2.97;1.40;;;;;;;16.46;100.00;99900.59;4972009;28;20037;-71
2022/10/24 07:37:16;;;;;;;2.58;1.10;;;;;;;16.38;100.00;99904.59;4978972;28;20410;-71
2022/10/24 07:39:42;;;;;;;2.03;1.42;;;;;;;16.49;100.00;99908.72;4991130;28;20035;-71
2022/10/24 07:42:09;;;;;;;4.40;1.27;;;;;;;16.54;100.00;99905.53;4991552;28;20034;-72
2022/10/24 07:44:35;;;;;;;2.00;1.23;;;;;;;16.74;100.00;99916.47;4978843;28;20038;-72
2022/10/24 07:47:05;;;;;;;2.53;1.45;;;;;;;16.80;100.00;99912.13;4989564;28;20038;-72
2022/10/24 07:49:32;;;;;;;3.97;1.53;;;;;;;16.82;100.00;99912.47;4990172;28;20108;-72
2022/10/24 07:51:57;;;;;;;2.17;1.48;;;;;;;16.78;100.00;99915.22;4988920;28;20289;-72
2022/10/24 07:54:24;;;;;;;1.92;1.20;;;;;;;16.86;100.00;99922.09;4987344;28;20042;-72
2022/10/24 07:56:49;;;;;;;2.17;1.40;;;;;;;16.97;100.00;99924.63;4988493;28;20491;-72
2022/10/24 07:59:15;;;;;;;2.83;1.75;;;;;;;17.01;100.00;99928.81;4991506;28;20039;-72
2022/10/24 08:01:40;;;;;;;4.47;1.35;;;;;;;17.26;100.00;99925.66;4986978;28;20033;-72
2022/10/24 08:04:06;;;;;;;2.65;1.27;;;;;;;17.08;100.00;99925.97;4989860;28;20073;-72
2022/10/24 08:06:32;;;;;;;1.85;0.90;;;;;;;17.33;100.00;99925.50;4989798;28;20030;-72
2022/10/24 08:08:57;;;;;;;3.05;1.25;;;;;;;17.49;100.00;99917.47;4983160;28;20039;-72
2022/10/24 08:11:25;;;;;;;1.58;1.17;;;;;;;17.71;100.00;99917.81;4988312;28;20605;-72
2022/10/24 08:13:52;;;;;;;1.38;1.00;;;;;;;17.74;99.77;99923.16;4990946;28;20395;-72
2022/10/24 08:16:22;;;;;;;4.35;1.20;;;;;;;17.79;99.99;99917.22;4981367;28;20039;-72
2022/10/24 08:18:48;;;;;;;5.28;1.40;;;;;;;17.81;99.84;99914.84;4991091;28;20479;-72
2022/10/24 08:21:16;;;;;;;4.15;1.38;;;;;;;17.95;99.27;99911.81;4989915;28;20061;-71
2022/10/24 08:23:44;;;;;;;2.10;1.40;;;;;;;17.95;99.45;99913.78;4983241;28;20041;-72
2022/10/24 08:26:13;;;;;;;1.75;1.15;;;;;;;18.02;98.48;99910.91;4987673;28;20558;-72
2022/10/24 08:28:40;;;;;;;4.35;1.50;;;;;;;17.88;99.84;99916.66;4989474;28;20477;-72
2022/10/24 08:31:10;;;;;;;2.40;1.02;;;;;;;18.06;98.62;99922.47;4986683;28;20048;-72
2022/10/24 08:33:35;;;;;;;7.03;1.30;;;;;;;18.22;98.18;99919.00;4970631;28;20042;-72
2022/10/24 08:36:12;;;;;;;4.32;0.90;;;;;;;17.96;99.29;99915.31;4971312;28;20403;-72
2022/10/24 08:38:38;;;;;;;3.45;1.25;;;;;;;18.08;99.00;99920.09;4971436;28;20058;-70
2022/10/24 08:41:05;;;;;;;3.63;1.00;;;;;;;18.34;97.75;99919.13;4970961;28;20499;-71
2022/10/24 08:43:30;;;;;;;11.43;1.00;;;;;;;18.47;97.29;99919.22;4970307;28;20035;-72
2022/10/24 08:46:25;;;;;;;7.18;1.65;;;;;;;18.51;97.28;99917.97;4976709;28;20513;-72
2022/10/24 08:49:01;;;;;;;1.35;0.85;;;;;;;18.65;96.03;99914.13;4990795;28;20073;-72
2022/10/24 08:51:37;;;;;;;1.85;1.00;;;;;;;18.64;95.91;99913.34;4994454;28;20045;-71
2022/10/24 08:54:03;;;;;;;1.60;0.90;;;;;;;18.84;94.88;99905.06;4992577;28;20026;-69
2022/10/24 08:56:32;;;;;;;1.70;0.82;;;;;;;18.77;94.69;99913.44;4994312;28;20475;-71
2022/10/24 08:58:59;;;;;;;2.00;0.95;;;;;;;19.01;94.20;99914.00;4992832;28;20034;-71
2022/10/24 09:01:47;;;;;;;0.88;0.80;;;;;;;18.82;94.02;99900.03;4994256;28;20043;-71
2022/10/24 09:04:16;;;;;;;7.80;1.10;;;;;;;18.86;94.19;99908.13;4956989;28;20035;-71
2022/10/24 09:06:42;;;;;;;5.18;1.02;;;;;;;18.76;94.42;99909.94;4985208;28;20034;-71
2022/10/24 09:09:14;;;;;;;1.65;0.98;;;;;;;18.84;94.43;99905.06;4992834;28;20044;-71
2022/10/24 09:11:53;;;;;;;1.85;1.02;;;;;;;18.88;94.40;99903.00;4994012;28;20038;-71
2022/10/24 09:14:20;;;;;;;2.22;1.40;;;;;;;18.93;94.13;99916.13;4982794;28;20065;-71
2022/10/24 09:16:51;;;;;;;2.15;1.13;;;;;;;18.89;93.28;99915.47;4992801;28;20105;-71
2022/10/24 09:19:21;;;;;;;1.38;0.88;;;;;;;18.86;94.25;99919.81;4984450;28;20595;-71
2022/10/24 09:21:48;;;;;;;2.00;0.90;;;;;;;18.96;93.01;99923.47;4992448;28;20054;-71
2022/10/24 09:24:37;;;;;;;1.88;0.90;;;;;;;19.01;92.05;99919.47;4991742;28;20026;-71
2022/10/24 09:27:08;;;;;;;2.17;1.13;;;;;;;19.20;91.93;99922.03;4993255;28;20053;-71
2022/10/24 09:29:33;;;;;;;2.03;0.70;;;;;;;19.18;92.04;99918.97;4988232;28;20038;-71
2022/10/24 09:32:00;;;;;;;1.48;0.82;;;;;;;19.34;91.72;99910.00;4974406;28;20381;-71
2022/10/24 09:34:25;;;;;;;4.03;0.98;;;;;;;19.27;89.99;99910.16;4973768;28;20480;-71
2022/10/24 09:36:50;;;;;;;1.80;0.77;;;;;;;19.49;90.69;99914.63;4974382;28;20082;-71
2022/10/24 09:39:24;;;;;;;2.63;1.00;;;;;;;19.29;90.90;99913.22;4983306;28;20038;-71
2022/10/24 09:41:50;;;;;;;1.85;1.10;;;;;;;19.48;90.06;99912.34;4985665;28;20061;-71
2022/10/24 09:44:40;;;;;;;0.75;0.60;;;;;;;19.54;89.42;99913.34;4989521;28;20108;-71
2022/10/24 09:47:20;;;;;;;3.15;0.88;;;;;;;19.39;89.27;99902.06;4991499;28;20073;-71
2022/10/24 09:49:46;;;;;;;5.60;0.87;;;;;;;19.39;89.52;99909.47;4993469;28;20037;-71
2022/10/24 09:52:24;;;;;;;0.98;0.55;;;;;;;19.47;89.36;99916.28;4993078;28;20261;-70
2022/10/24 09:55:15;;;;;;;1.33;1.15;;;;;;;19.43;89.53;99908.19;4985114;28;20061;-70
2022/10/24 09:57:40;;;;;;;2.45;0.80;;;;;;;19.40;88.98;99919.19;4986900;28;20069;-70
2022/10/24 10:00:18;;;;;;;1.30;0.70;;;;;;;19.45;88.98;99903.03;4985599;28;20077;-70
2022/10/24 10:03:01;;;;;;;0.57;0.50;;;;;;;19.38;88.51;99907.94;4992023;28;20278;-70
2022/10/24 10:05:41;;;;;;;1.88;0.63;;;;;;;19.53;88.53;99914.56;4991561;28;20092;-70
2022/10/24 10:08:16;;;;;;;1.65;0.60;;;;;;;19.47;88.54;99913.56;4987146;28;20043;-70
2022/10/24 10:10:42;;;;;;;1.88;0.60;;;;;;;19.51;88.50;99912.22;4990799;28;20069;-70
2022/10/24 10:13:22;;;;;;;0.90;0.55;;;;;;;19.54;88.05;99907.88;4992698;28;20070;-70
2022/10/24 10:15:53;;;;;;;2.72;1.10;;;;;;;19.60;87.57;99906.91;4992275;28;20049;-70
2022/10/24 10:18:18;;;;;;;2.83;0.80;;;;;;;19.53;87.42;99909.84;5000623;23;20045;-66
2022/10/24 10:20:44;;;;;;;1.20;0.55;;;;;;;19.62;87.44;99901.00;5012329;28;20044;-67
2022/10/24 10:23:30;;;;;;;3.45;0.52;;;;;;;19.65;87.33;99903.63;5012216;28;20025;-66
2022/10/24 10:26:17;;;;;;;2.40;0.68;;;;;;;19.80;86.62;99898.53;5009698;28;20049;-66
2022/10/24 10:28:51;;;;;;;0.70;0.55;;;;;;;20.21;85.88;99900.44;4982854;28;20034;-67
2022/10/24 10:31:21;;;;;;;0.55;0.40;;;;;;;20.33;84.86;99899.66;4972763;28;20030;-66
2022/10/24 10:34:21;;;;;;;1.55;0.55;;;;;;;20.33;82.58;99899.66;4973093;28;20031;-66
2022/10/24 10:37:17;;;;;;;1.65;0.90;;;;;;;20.24;81.05;99902.28;4973536;28;20113;-67
2022/10/24 10:40:04;;;;;;;2.83;0.50;;;;;;;20.55;81.90;99898.56;4972629;28;20076;-67
2022/10/24 10:42:33;;;;;;;1.08;0.32;;;;;;;20.41;79.25;99900.97;4972824;28;20133;-66
2022/10/24 10:45:08;;;;;;;0.43;0.30;;;;;;;20.42;78.98;99897.78;4971176;28;20034;-66
2022/10/24 10:47:46;;;;;;;0.45;0.45;;;;;;;20.58;77.22;99896.88;4986081;28;20092;-67
2022/10/24 10:50:26;;;;;;;0.77;0.30;;;;;;;20.69;76.74;99894.59;4992163;28;20401;-67
2022/10/24 10:52:57;;;;;;;0.55;0.38;;;;;;;20.94;76.76;99899.22;4992371;28;20053;-66
2022/10/24 10:55:34;;;;;;;2.38;0.20;;;;;;;21.14;76.71;99892.25;4984305;28;20471;-66
2022/10/24 10:58:23;;;;;;;3.60;0.45;;;;;;;21.03;75.50;99886.38;4972777;28;20035;-67
2022/10/24 11:00:59;;;;;;;0.95;0.60;;;;;;;20.96;73.14;99894.06;4972737;28;20097;-66
2022/10/24 11:03:49;;;;;;;0.40;0.35;;;;;;;20.81;73.75;99893.03;4973874;28;20539;-66
2022/10/24 11:06:25;;;;;;;0.38;0.28;;;;;;;20.47;73.09;99896.47;4970278;28;20042;-66
2022/10/24 11:09:27;;;;;;;3.30;0.40;;;;;;;20.42;73.83;99895.03;4986377;28;20062;-67
2022/10/24 11:12:18;;;;;;;1.65;0.55;;;;;;;20.47;73.42;99904.69;5005742;28;20049;-67
2022/10/24 11:15:23;;;;;;;1.48;0.40;;;;;;;20.55;73.36;99898.56;4984917;28;20030;-66
2022/10/24 11:17:57;;;;;;;0.77;0.30;;;;;;;20.50;73.62;99912.00;4986887;28;20046;-67
2022/10/24 11:20:25;;;;;;;2.60;0.40;;;;;;;20.57;71.79;99906.31;4971075;28;20037;-66
2022/10/24 11:23:01;;;;;;;0.82;0.68;;;;;;;20.63;72.11;99905.28;4990135;28;20038;-67
2022/10/24 11:25:40;;;;;;;1.33;0.73;;;;;;;20.60;71.62;99903.47;4990871;28;20041;-66
2022/10/24 11:28:20;;;;;;;3.22;0.45;;;;;;;20.65;71.63;99908.34;4988993;28;20042;-66
2022/10/24 11:30:51;;;;;;;1.65;0.80;;;;;;;20.87;71.24;99900.22;4985540;28;20038;-67
2022/10/24 11:33:23;;;;;;;3.00;0.43;;;;;;;20.85;70.03;99905.34;4991707;28;20030;-66
2022/10/24 11:36:00;;;;;;;2.10;0.47;;;;;;;20.72;70.76;99906.59;4988440;28;20053;-67
2022/10/24 11:38:29;;;;;;;2.92;0.40;;;;;;;20.45;72.39;99905.13;4974386;28;20112;-66
2022/10/24 11:41:15;;;;;;;2.15;0.40;;;;;;;20.55;71.59;99908.72;4989452;28;20455;-67
2022/10/24 11:43:43;;;;;;;0.38;0.30;;;;;;;20.64;71.29;99906.06;4991669;28;20034;-66